createdAt,value
2023-04-13T00:12:15.091Z,81.62
2023-04-13T00:27:06.361Z,79.45
2023-04-13T00:41:59.820Z,78.97
2023-04-13T00:56:54.095Z,78.62
2023-04-13T01:12:19.235Z,78.03
2023-04-13T01:27:17.020Z,76.58
2023-04-13T01:42:09.687Z,77.79
2023-04-13T01:57:00.731Z,76.00
2023-04-13T02:11:51.500Z,74.14
2023-04-13T02:26:42.812Z,72.74
2023-04-13T02:41:33.515Z,71.31
2023-04-13T02:56:24.398Z,72.00
2023-04-13T03:11:15.360Z,71.62
2023-04-13T03:26:06.482Z,71.53
2023-04-13T03:40:57.473Z,69.76
2023-04-13T03:55:48.560Z,69.56
2023-04-13T04:10:40.106Z,68.07
2023-04-13T04:55:11.471Z,67.40
2023-04-13T05:24:53.634Z,67.21
2023-04-13T05:39:44.988Z,66.87
2023-04-13T05:54:35.021Z,66.96
2023-04-13T06:09:26.407Z,66.97
2023-04-13T06:24:17.758Z,68.29
2023-04-13T06:39:08.887Z,66.63
2023-04-13T06:54:00.190Z,65.83
2023-04-13T07:08:51.595Z,66.03
2023-04-13T07:23:42.773Z,64.53
2023-04-13T07:38:34.506Z,62.86
2023-04-13T07:53:26.172Z,61.42
2023-04-13T08:08:17.730Z,62.10
2023-04-13T08:23:06.871Z,70.95
2023-04-13T08:37:55.996Z,78.47
2023-04-13T09:07:39.022Z,69.60
2023-04-13T09:22:30.601Z,72.47
2023-04-13T09:37:23.594Z,69.60
2023-04-13T09:52:18.868Z,70.15
2023-04-13T10:07:14.808Z,68.28
2023-04-13T10:22:09.050Z,66.52
2023-04-13T10:36:59.759Z,65.55
2023-04-13T10:51:54.224Z,64.37
2023-04-13T11:06:45.126Z,64.28
2023-04-13T11:21:36.769Z,62.69
2023-04-13T11:36:28.615Z,62.01
2023-04-13T11:51:21.035Z,56.19
2023-04-13T12:06:12.149Z,54.40
2023-04-13T12:21:02.544Z,52.93
2023-04-13T12:35:52.758Z,56.54
2023-04-13T12:50:43.213Z,54.00
2023-04-13T13:05:35.723Z,56.68
2023-04-13T13:20:25.540Z,61.40
2023-04-13T13:35:14.210Z,67.92
2023-04-13T15:48:55.133Z,71.16
2023-04-13T16:03:45.106Z,75.26
2023-04-13T16:18:36.284Z,73.47
2023-04-13T16:33:29.108Z,75.59
2023-04-13T16:48:21.365Z,72.09
2023-04-13T17:03:13.009Z,70.87
2023-04-13T17:18:03.759Z,68.15
2023-04-13T17:32:55.149Z,68.91
2023-04-13T17:47:45.153Z,71.04
2023-04-13T18:02:35.708Z,73.62
2023-04-13T18:17:26.158Z,76.29
2023-04-13T18:47:06.878Z,73.97
2023-04-13T19:01:58.084Z,71.79
2023-04-13T19:16:48.165Z,70.16
2023-04-13T19:31:37.176Z,71.37
2023-04-13T19:46:27.943Z,74.52
2023-04-13T20:01:18.227Z,77.26
2023-04-13T20:16:08.051Z,79.37
2023-04-13T20:45:49.162Z,82.60
2023-04-13T21:00:39.889Z,81.15
2023-04-13T21:15:29.831Z,82.65
2023-04-13T21:30:19.614Z,84.16
2023-04-13T21:59:59.953Z,85.78
2023-04-13T22:44:36.454Z,82.40
2023-04-13T23:14:19.688Z,80.78
2023-04-13T23:29:13.070Z,80.97
2023-04-13T23:44:03.329Z,80.37
2023-04-13T23:58:54.812Z,79.15
